Aeroporto :
LOGIN :

Iscrizione | Disclaimer

   EN    FR    IT 

 










Sommario :    VFR   VFR Marginale   IFR   IFR Intensivo   IFR Molto Intensivo
Visibilità : 
Base nubi : 
>= 8 km
>= 3000ft
5 / 8 km
1000 / 3000 ft
1500m / 5 km
500 / 1000 ft
800 / 1500m
200 / 500 ft
< 800m
< 200 ft
Simboli :   Temporali  Nebbia  Neve Forte  Precipitazioni Forti  Vento > 20 kt
SIGMETs :   Varie  Temporali  Ghiacco  Turbolenza  Onda orograficha  Ceneri Vulcaniche







- Altitudine del aeroporto : 15 ft
- Codice IATA : FCO


LIRF - Roma Leonardo da Vinci Fiumicino

ULTIMO METAR :
  • 190250Z VRB02KT 9999 SCT030 09/06 Q1024 NOSIG

METARs OBSOLETI :
  • 190220Z VRB02KT 6000 SCT030 09/07 Q1024 NOSIG
  • 190150Z VRB03KT 7000 SCT030 09/07 Q1024 NOSIG
  • 190120Z VRB02KT 6000 SCT030 08/06 Q1024 NOSIG
  • 190050Z 08004KT 6000 SCT030 08/06 Q1024 NOSIG
  • 190020Z 09002KT 6000 SCT030 08/06 Q1025 NOSIG
  • 182350Z 08002KT 6000 SCT030 08/06 Q1025 NOSIG

TAF TAF LIRF
Valido dal 19 a 00 ore il 20 a 06 ore UTC


182300Z 1900/2006 VRB04KT 4000 BR BKN025
TEMPO 1900/1906 2000
BECMG 1906/1908 8000
Nessun NOTAM noto per questo aeroporto.



MetMap, La meteo Aeronautica in un colpo d'occhio ! - Copyright ORBIFLY Dicembre 2007 - Disclaimer

ORBIFLY MET'MAP TEAM :

Programmazione e sviluppo : Alexandra Zaïnal
Concezione e sviluppo : Baudouin d'Aumeries
Co-Programmazione e sviluppo : Marc-Olivier Méhu
Supporto tecnico e logistico : Manuel Goepfert
Aiuto per la traduzione : Arnaldo La Scala

Contatto : metmap@orbifly.com




FONTI E CREDITI :

   NOAA